»·PEaware :: N623JB KSBD-KEMT

N623JB :: KSBD-KEMT

FLIGHT INFORMATION

Flight Status: Arrived
Operator: Privately registered:
United States
More flights under this callsign
Pilot: Jonathan B. (32222)
Aircraft: CIRRUS SR-22
(SR22)
More flights by this aircraft type
Origin: KSBD San Bernardino Intl
United States
Destination: KEMT El Monte
United States
More flights between these airports :: More routes between these airports
Route:
File this flight plan on PilotEdge
Remarks:
Altitude:
(Current/Filed)
4,500ft
Speed:
(Current/Filed)
130kts
Departed: 09-Nov-20 12:31 PM
Arrived: 09-Nov-20 12:52 PM
Distance/Time
Traveled:
40nm/0:21
Distance/Time
To Go:
Arrived

Flight Plot

Page will automatically refresh every two minutes.


Map Options




Map Legend


Flown Route
Filed Route
Departure Airport
Arrival Airport
Navaid (VOR, NDB)
Fix

Horizontal Profiles

Position Reports

Time Latitude Longitude Heading Altitude Ground
Speed
09-Nov-20 12:06 34.101137 -117.227733 15 1145ft 0kts
09-Nov-20 12:07 34.101137 -117.227733 15 1145ft 0kts
09-Nov-20 12:08 34.101137 -117.227733 15 1145ft 0kts
09-Nov-20 12:09 34.101137 -117.227733 15 1145ft 0kts
09-Nov-20 12:10 34.101137 -117.227733 15 1145ft 0kts
09-Nov-20 12:11 34.101137 -117.227733 15 1145ft 0kts
09-Nov-20 12:12 34.101137 -117.227733 15 1145ft 0kts
09-Nov-20 12:13 34.101137 -117.227733 15 1145ft 0kts
09-Nov-20 12:14 34.101137 -117.227733 15 1145ft 0kts
09-Nov-20 12:15 34.101137 -117.227733 15 1145ft 0kts
09-Nov-20 12:16 34.101137 -117.227733 15 1145ft 0kts
09-Nov-20 12:17 34.101137 -117.227733 15 1145ft 0kts
09-Nov-20 12:18 34.101205 -117.227923 202 1145ft 0kts
09-Nov-20 12:19 34.101205 -117.227923 202 1145ft 0kts
09-Nov-20 12:20 34.100981 -117.229539 110 1139ft 13kts
09-Nov-20 12:21 34.100407 -117.229581 349 1140ft 10kts
09-Nov-20 12:22 34.099342 -117.227180 269 1143ft 10kts
09-Nov-20 12:23 34.097696 -117.233266 249 1134ft 24kts
09-Nov-20 12:24 34.095156 -117.241797 258 1104ft 27kts
09-Nov-20 12:25 34.092528 -117.250709 241 1089ft 17kts
09-Nov-20 12:26 34.091572 -117.250822 158 1086ft 0kts
09-Nov-20 12:27 34.091572 -117.250822 158 1086ft 0kts
09-Nov-20 12:28 34.091572 -117.250822 158 1086ft 0kts
09-Nov-20 12:29 34.091166 -117.250426 127 1086ft 13kts
09-Nov-20 12:30 34.097703 -117.227217 71 1745ft 106kts
09-Nov-20 12:31 34.099952 -117.194461 174 3119ft 108kts
09-Nov-20 12:32 34.086414 -117.223924 254 4330ft 121kts
09-Nov-20 12:33 34.092487 -117.272682 285 4484ft 160kts
09-Nov-20 12:34 34.095205 -117.323281 265 4493ft 148kts
09-Nov-20 12:35 34.092139 -117.372664 265 4500ft 147kts
09-Nov-20 12:36 34.090328 -117.402993 265 4499ft 147kts
09-Nov-20 12:37 34.087506 -117.452342 265 4500ft 147kts
09-Nov-20 12:38 34.084761 -117.501301 265 4500ft 148kts
09-Nov-20 12:39 34.082025 -117.550681 265 4499ft 147kts
09-Nov-20 12:40 34.080359 -117.600384 267 4500ft 148kts
09-Nov-20 12:41 34.079240 -117.649924 267 4500ft 148kts
09-Nov-20 12:42 34.078049 -117.699515 267 4500ft 148kts
09-Nov-20 12:43 34.076826 -117.749152 267 4499ft 148kts
09-Nov-20 12:44 34.075603 -117.798689 267 4502ft 147kts
09-Nov-20 12:45 34.072649 -117.847710 276 4499ft 147kts
09-Nov-20 12:47 34.076294 -117.894663 273 3841ft 136kts
09-Nov-20 12:48 34.084544 -117.934207 289 2724ft 128kts
09-Nov-20 12:49 34.095911 -117.971420 288 1879ft 110kts
09-Nov-20 12:50 34.105529 -118.003376 289 1329ft 82kts
09-Nov-20 12:51 34.100445 -118.026189 215 716ft 82kts
09-Nov-20 12:52 34.087238 -118.034172 206 294ft 28kts
09-Nov-20 12:53 34.085384 -118.034709 116 292ft 0kts
09-Nov-20 12:54 34.085382 -118.034705 110 292ft 1kts
09-Nov-20 12:55 34.085695 -118.034013 210 292ft 0kts
09-Nov-20 12:56 0.000408 0.013975 0 3ft 0kts
09-Nov-20 12:57 0.000408 0.013975 0 3ft 0kts
09-Nov-20 12:58 0.000408 0.013975 0 3ft 0kts
09-Nov-20 12:59 0.000408 0.013975 0 3ft 0kts
09-Nov-20 13:00 0.000408 0.013975 0 3ft 0kts
09-Nov-20 13:01 0.000408 0.013975 0 3ft 0kts
09-Nov-20 13:02 0.000408 0.013975 0 3ft 0kts
09-Nov-20 13:02 0.000408 0.013975 0 3ft 0kts
09-Nov-20 13:04 33.681231 -117.864356 297 47ft 0kts
09-Nov-20 13:04 33.681231 -117.864356 297 47ft 0kts
09-Nov-20 13:06 0.000408 0.013975 0 3ft 0kts
09-Nov-20 13:06 33.671939 -117.867408 94 47ft 0kts

Navigation Log

Ident Type
Flight plan parsing failed, navigation log unavailable